Time;durP1;ratioP1;P1;durP2;ratioP2;P2;SDS_P1;SDS_P2;PMS_P1;PMS_P2;Temp;Humidity;BMP_temperature;BMP_pressure;BME280_temperature;BME280_humidity;BME280_pressure;Samples;Min_cycle;Max_cycle;Signal;HPM_P1;HPM_P2
2022/04/30 00:01:56;;;;;;;4.28;2.50;;;;;;;;;;4979429;28;20698;-84
2022/04/30 00:04:23;;;;;;;3.40;2.90;;;;;;;;;;4973462;28;20207;-85
2022/04/30 00:06:52;;;;;;;4.65;2.55;;;;;;;;;;4972816;28;20208;-84
2022/04/30 00:09:19;;;;;;;2.25;2.10;;;;;;;;;;4979677;28;20197;-85
2022/04/30 00:11:48;;;;;;;2.72;2.10;;;;;;;;;;4956037;28;20560;-85
2022/04/30 00:14:15;;;;;;;2.63;2.10;;;;;;;;;;4975711;28;20225;-84
2022/04/30 00:16:44;;;;;;;4.18;2.60;;;;;;;;;;4968775;28;20210;-84
2022/04/30 00:19:11;;;;;;;2.45;2.25;;;;;;;;;;4980586;28;20205;-84
2022/04/30 00:21:38;;;;;;;2.47;2.28;;;;;;;;;;4981268;28;20217;-84
2022/04/30 00:24:08;;;;;;;3.03;2.55;;;;;;;;;;4973887;28;20577;-84
2022/04/30 00:26:35;;;;;;;2.42;2.22;;;;;;;;;;4974133;28;20211;-84
2022/04/30 00:29:02;;;;;;;3.42;2.92;;;;;;;;;;4969920;28;20261;-84
2022/04/30 00:31:29;;;;;;;6.00;2.40;;;;;;;;;;4976506;28;20204;-84
2022/04/30 00:33:57;;;;;;;5.75;3.05;;;;;;;;;;4990546;28;20390;-86
2022/04/30 00:36:24;;;;;;;5.70;2.58;;;;;;;;;;4973354;28;20206;-85
2022/04/30 00:38:51;;;;;;;4.15;2.60;;;;;;;;;;4965556;28;20199;-85
2022/04/30 00:41:21;;;;;;;2.95;2.03;;;;;;;;;;4981029;28;20230;-86
2022/04/30 00:43:49;;;;;;;4.45;3.10;;;;;;;;;;4985970;28;20665;-85
2022/04/30 00:46:16;;;;;;;2.88;2.53;;;;;;;;;;4989328;28;20212;-84
2022/04/30 00:48:44;;;;;;;2.38;1.90;;;;;;;;;;4983700;28;20185;-85
2022/04/30 00:51:11;;;;;;;2.60;2.40;;;;;;;;;;4983646;28;20204;-84
2022/04/30 00:53:39;;;;;;;2.90;2.47;;;;;;;;;;4990553;28;20208;-84
2022/04/30 00:56:07;;;;;;;2.55;2.35;;;;;;;;;;4995867;28;20221;-83
2022/04/30 00:58:36;;;;;;;2.42;2.22;;;;;;;;;;4994650;28;20712;-83
2022/04/30 01:01:04;;;;;;;4.60;2.40;;;;;;;;;;4973328;28;20563;-83
2022/04/30 01:03:32;;;;;;;2.50;2.30;;;;;;;;;;4979970;28;20231;-83
2022/04/30 01:06:00;;;;;;;3.03;2.45;;;;;;;;;;4970548;28;20198;-83
2022/04/30 01:08:28;;;;;;;2.20;2.10;;;;;;;;;;4980510;28;20201;-82
2022/04/30 01:10:55;;;;;;;2.80;2.40;;;;;;;;;;4985026;28;20209;-82
2022/04/30 01:13:23;;;;;;;2.83;2.63;;;;;;;;;;4968269;28;20668;-83
2022/04/30 01:15:51;;;;;;;2.20;2.00;;;;;;;;;;4978939;28;20213;-85
2022/04/30 01:18:19;;;;;;;2.50;2.30;;;;;;;;;;4982231;28;20212;-83
2022/04/30 01:20:51;;;;;;;2.75;2.15;;;;;;;;;;4986760;28;20209;-84
2022/04/30 01:23:20;;;;;;;3.90;2.30;;;;;;;;;;4979525;28;20695;-83
2022/04/30 01:25:50;;;;;;;2.80;2.55;;;;;;;;;;4967124;28;20676;-84
2022/04/30 01:28:19;;;;;;;3.00;2.70;;;;;;;;;;4966791;28;20225;-84
2022/04/30 01:30:46;;;;;;;6.10;2.40;;;;;;;;;;4979252;28;20221;-84
2022/04/30 01:38:47;;;;;;;2.40;2.13;;;;;;;;;;4948288;28;20194;-87
2022/04/30 01:41:14;;;;;;;6.00;2.78;;;;;;;;;;4977987;28;20320;-87
2022/04/30 01:43:42;;;;;;;7.65;2.88;;;;;;;;;;4977735;28;20204;-86
2022/04/30 01:46:15;;;;;;;2.58;2.25;;;;;;;;;;4978835;28;20622;-86
2022/04/30 01:48:43;;;;;;;2.97;2.00;;;;;;;;;;4986621;28;20528;-87
2022/04/30 01:51:13;;;;;;;2.58;2.38;;;;;;;;;;4981270;28;20207;-86
2022/04/30 01:53:41;;;;;;;3.55;3.08;;;;;;;;;;4961184;28;20220;-87
2022/04/30 01:56:09;;;;;;;2.75;1.90;;;;;;;;;;4981093;28;20691;-85
2022/04/30 01:58:37;;;;;;;3.05;2.47;;;;;;;;;;4978025;28;20661;-83
2022/04/30 02:01:07;;;;;;;2.70;1.80;;;;;;;;;;4970153;28;20228;-83
2022/04/30 02:03:35;;;;;;;2.22;2.00;;;;;;;;;;4989687;28;20205;-83
2022/04/30 02:06:03;;;;;;;2.28;2.08;;;;;;;;;;4993870;28;20204;-83
2022/04/30 02:08:32;;;;;;;4.05;2.05;;;;;;;;;;4974851;28;20217;-83
2022/04/30 02:10:59;;;;;;;4.05;2.63;;;;;;;;;;4987779;28;20205;-83
2022/04/30 02:13:28;;;;;;;3.25;1.85;;;;;;;;;;4989405;28;20212;-85
2022/04/30 02:15:55;;;;;;;3.42;2.38;;;;;;;;;;4975872;28;20255;-87
2022/04/30 02:18:24;;;;;;;3.30;1.90;;;;;;;;;;4994998;28;20250;-86
2022/04/30 02:20:52;;;;;;;2.95;2.22;;;;;;;;;;4972171;28;20680;-86
2022/04/30 02:23:22;;;;;;;3.50;2.30;;;;;;;;;;4969882;28;20304;-85
2022/04/30 02:25:51;;;;;;;2.50;2.13;;;;;;;;;;4982425;28;20208;-83
2022/04/30 02:28:18;;;;;;;3.35;2.08;;;;;;;;;;4976529;28;20718;-83
2022/04/30 02:30:47;;;;;;;3.25;1.85;;;;;;;;;;4977779;28;20656;-83
2022/04/30 02:33:16;;;;;;;3.97;2.20;;;;;;;;;;4984105;28;20247;-87
2022/04/30 02:35:44;;;;;;;2.22;1.70;;;;;;;;;;4984736;28;20228;-86
2022/04/30 02:38:11;;;;;;;2.70;2.28;;;;;;;;;;4973239;28;20241;-85
2022/04/30 02:40:39;;;;;;;3.05;2.00;;;;;;;;;;4980894;28;20208;-86
2022/04/30 02:43:07;;;;;;;2.65;2.00;;;;;;;;;;4991227;28;20232;-85
2022/04/30 02:45:36;;;;;;;3.47;2.20;;;;;;;;;;4974173;28;20565;-80
2022/04/30 02:48:06;;;;;;;2.47;1.92;;;;;;;;;;4987408;28;20194;-80
2022/04/30 02:50:34;;;;;;;2.25;2.05;;;;;;;;;;4980851;28;20600;-80
2022/04/30 02:53:01;;;;;;;2.20;2.00;;;;;;;;;;4984973;28;20229;-80
2022/04/30 02:55:28;;;;;;;2.15;1.90;;;;;;;;;;4980094;28;20710;-80
2022/04/30 03:00:41;;;;;;;2.40;1.70;;;;;;;;;;4977782;28;20203;-81
2022/04/30 03:03:10;;;;;;;2.22;2.05;;;;;;;;;;4990755;28;20197;-80
2022/04/30 03:05:40;;;;;;;2.13;1.92;;;;;;;;;;4968612;28;20285;-80
2022/04/30 03:08:12;;;;;;;2.10;1.90;;;;;;;;;;4958459;28;20641;-80
2022/04/30 03:10:39;;;;;;;2.13;1.92;;;;;;;;;;4974910;28;20567;-80
2022/04/30 03:13:06;;;;;;;2.05;1.95;;;;;;;;;;4980227;28;20664;-79
2022/04/30 03:15:34;;;;;;;2.40;2.20;;;;;;;;;;4972412;28;20221;-79
2022/04/30 03:23:32;;;;;;;2.22;1.58;;;;;;;;;;4978484;28;20215;-79
2022/04/30 03:25:59;;;;;;;2.67;2.00;;;;;;;;;;4973576;28;20572;-79
2022/04/30 03:28:27;;;;;;;3.15;1.75;;;;;;;;;;4979840;28;20204;-81
2022/04/30 03:30:54;;;;;;;2.25;2.05;;;;;;;;;;4974239;28;20661;-80
2022/04/30 03:33:21;;;;;;;2.72;2.50;;;;;;;;;;4986085;28;20205;-80
2022/04/30 03:35:49;;;;;;;2.50;2.30;;;;;;;;;;4975966;28;20226;-81
2022/04/30 03:38:16;;;;;;;2.72;2.20;;;;;;;;;;4964515;28;20209;-80
2022/04/30 03:40:43;;;;;;;1.83;1.73;;;;;;;;;;4980233;28;20204;-80
2022/04/30 03:43:10;;;;;;;5.18;2.42;;;;;;;;;;4974994;28;20201;-80
2022/04/30 03:45:38;;;;;;;2.63;1.92;;;;;;;;;;4974410;28;20201;-80
2022/04/30 03:48:05;;;;;;;2.78;1.90;;;;;;;;;;4973541;28;20683;-81
2022/04/30 03:50:32;;;;;;;3.28;2.15;;;;;;;;;;4977619;28;20212;-80
2022/04/30 03:53:00;;;;;;;3.03;2.65;;;;;;;;;;4977955;28;20208;-79
2022/04/30 03:55:28;;;;;;;2.40;2.20;;;;;;;;;;4976479;28;20228;-80
2022/04/30 03:57:55;;;;;;;2.10;2.00;;;;;;;;;;4987529;28;20964;-81
2022/04/30 04:00:22;;;;;;;2.20;2.00;;;;;;;;;;4974073;28;20632;-80
2022/04/30 04:02:49;;;;;;;2.10;1.73;;;;;;;;;;4981220;28;20233;-80
2022/04/30 04:05:17;;;;;;;2.20;2.00;;;;;;;;;;4966564;28;20658;-80
2022/04/30 04:07:44;;;;;;;1.52;1.42;;;;;;;;;;4988446;28;20636;-80
2022/04/30 04:10:13;;;;;;;4.40;3.72;;;;;;;;;;4964052;28;20292;-79
2022/04/30 04:12:40;;;;;;;4.63;2.15;;;;;;;;;;4986636;28;20656;-79
2022/04/30 04:17:53;;;;;;;2.10;1.90;;;;;;;;;;4980042;28;20200;-79
2022/04/30 04:20:24;;;;;;;3.35;2.50;;;;;;;;;;4974118;28;20209;-79
2022/04/30 04:22:51;;;;;;;2.92;2.70;;;;;;;;;;4982248;28;20205;-81
2022/04/30 04:28:05;;;;;;;3.95;2.15;;;;;;;;;;4986949;28;20268;-79
2022/04/30 04:30:33;;;;;;;2.40;2.20;;;;;;;;;;4975563;28;20212;-79
2022/04/30 04:33:00;;;;;;;2.75;2.55;;;;;;;;;;4989137;28;20204;-81
2022/04/30 04:35:28;;;;;;;4.00;2.55;;;;;;;;;;4973019;28;20225;-80
2022/04/30 04:37:55;;;;;;;3.50;2.30;;;;;;;;;;4971408;28;20201;-80
2022/04/30 04:40:24;;;;;;;4.53;3.22;;;;;;;;;;4976645;28;20208;-81
2022/04/30 04:42:51;;;;;;;2.10;1.90;;;;;;;;;;4987464;28;20236;-79
2022/04/30 04:45:18;;;;;;;3.17;2.30;;;;;;;;;;4977845;28;20205;-80
2022/04/30 04:47:49;;;;;;;3.08;1.80;;;;;;;;;;4980652;28;20530;-79
2022/04/30 04:50:16;;;;;;;2.70;2.50;;;;;;;;;;4966961;28;20255;-80
2022/04/30 04:52:44;;;;;;;2.65;2.03;;;;;;;;;;4975453;28;20634;-78
2022/04/30 04:55:11;;;;;;;4.13;2.50;;;;;;;;;;4979993;28;20319;-78
2022/04/30 04:57:39;;;;;;;2.88;2.67;;;;;;;;;;4976755;28;20212;-79
2022/04/30 05:00:07;;;;;;;4.05;2.53;;;;;;;;;;4971692;28;20209;-78
2022/04/30 05:02:34;;;;;;;3.17;2.45;;;;;;;;;;4983817;28;20667;-78
2022/04/30 05:05:02;;;;;;;1.98;1.60;;;;;;;;;;4982726;28;20205;-78
2022/04/30 05:07:29;;;;;;;3.45;2.03;;;;;;;;;;4986149;28;20220;-79
2022/04/30 05:09:56;;;;;;;3.33;3.03;;;;;;;;;;4979475;28;20205;-79
2022/04/30 05:12:23;;;;;;;2.30;2.10;;;;;;;;;;4978822;28;20194;-79
2022/04/30 05:14:53;;;;;;;4.47;2.60;;;;;;;;;;4974879;28;20206;-79
2022/04/30 05:17:20;;;;;;;2.20;2.00;;;;;;;;;;4966801;28;20238;-79
2022/04/30 05:19:47;;;;;;;4.40;1.83;;;;;;;;;;4977413;28;20198;-81
2022/04/30 05:22:15;;;;;;;2.45;2.00;;;;;;;;;;4970779;28;20224;-79
2022/04/30 05:24:42;;;;;;;1.95;1.70;;;;;;;;;;4978948;28;20201;-79
2022/04/30 05:27:09;;;;;;;4.85;2.45;;;;;;;;;;4992109;28;20193;-79
2022/04/30 05:29:36;;;;;;;2.40;2.10;;;;;;;;;;4979321;28;20199;-80
2022/04/30 05:32:05;;;;;;;7.00;2.75;;;;;;;;;;4977918;28;20595;-79
2022/04/30 05:34:32;;;;;;;2.42;2.10;;;;;;;;;;4984963;28;20194;-80
2022/04/30 05:36:59;;;;;;;2.90;2.15;;;;;;;;;;4986267;28;20217;-79
2022/04/30 05:39:27;;;;;;;4.32;2.60;;;;;;;;;;4976765;28;20550;-79
2022/04/30 05:41:54;;;;;;;4.15;3.00;;;;;;;;;;4980355;28;20261;-80
2022/04/30 05:44:21;;;;;;;3.50;2.25;;;;;;;;;;4982567;28;20250;-79
2022/04/30 05:46:48;;;;;;;2.30;2.10;;;;;;;;;;4985135;28;20196;-80
2022/04/30 05:49:16;;;;;;;2.85;1.90;;;;;;;;;;4971669;28;20581;-81
2022/04/30 05:51:44;;;;;;;2.40;2.20;;;;;;;;;;4977756;28;20209;-80
2022/04/30 05:54:11;;;;;;;2.25;1.95;;;;;;;;;;4982277;28;20208;-80
2022/04/30 05:56:38;;;;;;;2.42;1.80;;;;;;;;;;4989064;28;20218;-81
2022/04/30 05:59:05;;;;;;;2.45;2.25;;;;;;;;;;4971621;28;20743;-80
2022/04/30 06:01:32;;;;;;;2.60;2.40;;;;;;;;;;4980955;28;20215;-79
2022/04/30 06:03:59;;;;;;;2.05;1.88;;;;;;;;;;4982111;28;20435;-81
2022/04/30 06:06:27;;;;;;;4.43;1.67;;;;;;;;;;4991554;28;20193;-80
2022/04/30 06:08:54;;;;;;;2.58;1.45;;;;;;;;;;4959637;28;20213;-81
2022/04/30 06:11:22;;;;;;;2.70;1.73;;;;;;;;;;4967305;28;20204;-80
2022/04/30 06:13:49;;;;;;;5.57;2.00;;;;;;;;;;4977481;28;20211;-82
2022/04/30 06:16:16;;;;;;;4.47;1.90;;;;;;;;;;4973778;28;20248;-84
2022/04/30 06:18:44;;;;;;;2.05;1.90;;;;;;;;;;4991908;28;20291;-84
2022/04/30 06:21:11;;;;;;;7.97;2.50;;;;;;;;;;4995063;28;20212;-84
2022/04/30 06:23:39;;;;;;;3.75;2.20;;;;;;;;;;4980245;28;20204;-83
2022/04/30 06:26:07;;;;;;;2.72;2.38;;;;;;;;;;4983972;28;20645;-84
2022/04/30 06:28:34;;;;;;;2.47;2.17;;;;;;;;;;4977911;28;20250;-82
2022/04/30 06:31:01;;;;;;;5.97;3.08;;;;;;;;;;4972659;28;20201;-83
2022/04/30 06:33:29;;;;;;;7.15;4.70;;;;;;;;;;4981604;28;20676;-80
2022/04/30 06:35:56;;;;;;;6.78;4.70;;;;;;;;;;4983837;28;20201;-82
2022/04/30 06:38:23;;;;;;;6.70;5.28;;;;;;;;;;4965367;28;20324;-82
2022/04/30 06:40:52;;;;;;;9.60;5.43;;;;;;;;;;4968044;28;20315;-84
2022/04/30 06:43:21;;;;;;;6.25;5.60;;;;;;;;;;4979438;28;20197;-84
2022/04/30 06:45:48;;;;;;;8.77;4.00;;;;;;;;;;4978225;28;20210;-83
2022/04/30 06:48:15;;;;;;;4.05;3.50;;;;;;;;;;4981722;28;20244;-84
2022/04/30 06:50:43;;;;;;;10.43;3.55;;;;;;;;;;4977046;28;20209;-83
2022/04/30 06:58:50;;;;;;;3.30;3.00;;;;;;;;;;4985392;28;20209;-85
2022/04/30 07:01:38;;;;;;;4.97;3.00;;;;;;;;;;4974876;28;20588;-83
2022/04/30 07:04:05;;;;;;;4.15;3.10;;;;;;;;;;4979582;28;20193;-84
2022/04/30 07:06:33;;;;;;;4.70;3.10;;;;;;;;;;4986821;28;20714;-84
2022/04/30 07:09:00;;;;;;;7.07;3.30;;;;;;;;;;4975907;28;20196;-84
2022/04/30 07:11:29;;;;;;;3.22;2.42;;;;;;;;;;4969114;28;20201;-84
2022/04/30 07:13:56;;;;;;;3.95;2.78;;;;;;;;;;4982137;28;20209;-84
2022/04/30 07:16:23;;;;;;;3.63;3.25;;;;;;;;;;4981690;28;20573;-84
2022/04/30 07:18:50;;;;;;;3.85;2.75;;;;;;;;;;4983738;28;20197;-84
2022/04/30 07:21:18;;;;;;;2.65;2.45;;;;;;;;;;4975526;28;20284;-84
2022/04/30 07:23:46;;;;;;;2.88;2.40;;;;;;;;;;4966872;28;20507;-84
2022/04/30 07:26:13;;;;;;;3.92;2.53;;;;;;;;;;4974064;28;20280;-84
2022/04/30 07:28:42;;;;;;;5.10;4.22;;;;;;;;;;4983543;28;20228;-83
2022/04/30 07:31:09;;;;;;;3.97;3.58;;;;;;;;;;4973355;28;20201;-84
2022/04/30 07:33:36;;;;;;;4.20;3.50;;;;;;;;;;4982012;28;20513;-84
2022/04/30 07:36:03;;;;;;;8.38;3.70;;;;;;;;;;4976282;28;20205;-82
2022/04/30 07:38:30;;;;;;;4.90;3.60;;;;;;;;;;4971159;28;20202;-84
2022/04/30 07:40:57;;;;;;;5.85;3.03;;;;;;;;;;4966332;28;20298;-82
2022/04/30 07:43:25;;;;;;;6.75;2.90;;;;;;;;;;4979279;28;20209;-84
2022/04/30 07:45:53;;;;;;;7.30;2.53;;;;;;;;;;4968279;28;20253;-81
2022/04/30 07:48:20;;;;;;;3.95;2.92;;;;;;;;;;4979467;28;20213;-85
2022/04/30 07:50:47;;;;;;;4.32;2.47;;;;;;;;;;4968990;28;20208;-83
2022/04/30 07:53:15;;;;;;;2.80;2.50;;;;;;;;;;4977639;28;20215;-83
2022/04/30 07:55:43;;;;;;;3.70;2.55;;;;;;;;;;4986991;28;20211;-81
2022/04/30 07:58:11;;;;;;;3.15;2.63;;;;;;;;;;4986090;28;20228;-84
2022/04/30 08:00:38;;;;;;;3.42;3.00;;;;;;;;;;4962581;28;20204;-82
2022/04/30 08:03:06;;;;;;;3.40;3.10;;;;;;;;;;4962012;28;20582;-82
2022/04/30 08:05:34;;;;;;;3.33;2.10;;;;;;;;;;4989162;28;20200;-83
2022/04/30 08:08:01;;;;;;;2.28;2.08;;;;;;;;;;4973058;28;20188;-82
2022/04/30 08:10:29;;;;;;;2.88;1.85;;;;;;;;;;4964360;28;20728;-83
2022/04/30 08:12:56;;;;;;;4.13;2.50;;;;;;;;;;4975337;28;20208;-83
2022/04/30 08:15:24;;;;;;;3.33;2.00;;;;;;;;;;4970526;28;20232;-83
2022/04/30 08:17:51;;;;;;;2.50;2.00;;;;;;;;;;4979908;28;20226;-84
2022/04/30 08:20:20;;;;;;;2.45;2.20;;;;;;;;;;4981997;28;20205;-84
2022/04/30 08:22:47;;;;;;;2.40;2.20;;;;;;;;;;4962390;28;20209;-83
2022/04/30 08:25:14;;;;;;;2.95;2.28;;;;;;;;;;4980821;28;20536;-83
2022/04/30 08:27:42;;;;;;;2.53;1.92;;;;;;;;;;4969524;28;20684;-83
2022/04/30 08:30:10;;;;;;;2.20;2.00;;;;;;;;;;4972354;28;20355;-83
2022/04/30 08:32:38;;;;;;;2.30;2.10;;;;;;;;;;4982074;28;20389;-84
2022/04/30 08:35:05;;;;;;;4.35;1.92;;;;;;;;;;4980971;28;20201;-84
2022/04/30 08:37:33;;;;;;;2.20;2.03;;;;;;;;;;4964252;28;20221;-84
2022/04/30 08:40:01;;;;;;;1.75;1.65;;;;;;;;;;4980279;28;20201;-84
2022/04/30 08:42:29;;;;;;;2.10;1.75;;;;;;;;;;4979836;28;20228;-84
2022/04/30 08:44:56;;;;;;;3.17;1.80;;;;;;;;;;4976149;28;20203;-85
2022/04/30 08:47:23;;;;;;;2.88;2.17;;;;;;;;;;4972979;28;20213;-85
2022/04/30 08:49:50;;;;;;;1.70;1.60;;;;;;;;;;4977037;28;20663;-84
2022/04/30 08:52:17;;;;;;;10.35;2.85;;;;;;;;;;4974567;28;20525;-82
2022/04/30 08:54:46;;;;;;;3.35;1.95;;;;;;;;;;4968971;28;20202;-84
2022/04/30 08:57:14;;;;;;;4.05;1.88;;;;;;;;;;4977831;28;20225;-83
2022/04/30 08:59:41;;;;;;;2.50;1.77;;;;;;;;;;4972573;28;20657;-83
2022/04/30 09:02:10;;;;;;;1.73;1.63;;;;;;;;;;4980773;28;20209;-83
2022/04/30 09:04:47;;;;;;;5.95;2.03;;;;;;;;;;4971035;28;20310;-85
2022/04/30 09:07:15;;;;;;;2.13;1.75;;;;;;;;;;4979117;28;20204;-83
2022/04/30 09:09:42;;;;;;;1.23;1.13;;;;;;;;;;4974571;28;20205;-82
2022/04/30 09:12:12;;;;;;;1.75;1.65;;;;;;;;;;4986330;28;20610;-84
2022/04/30 09:14:41;;;;;;;2.53;1.98;;;;;;;;;;4977443;28;20692;-83
2022/04/30 09:17:09;;;;;;;1.88;1.77;;;;;;;;;;4989485;28;20216;-84
2022/04/30 09:19:46;;;;;;;1.70;1.27;;;;;;;;;;4976903;28;20201;-82
2022/04/30 09:22:14;;;;;;;5.40;2.28;;;;;;;;;;4959763;28;20209;-83
2022/04/30 09:24:49;;;;;;;2.00;1.83;;;;;;;;;;4973613;28;20201;-82
2022/04/30 09:27:18;;;;;;;2.00;1.60;;;;;;;;;;4987658;28;20219;-83
2022/04/30 09:29:45;;;;;;;1.73;1.63;;;;;;;;;;4976787;28;20198;-83
2022/04/30 09:32:19;;;;;;;2.15;1.95;;;;;;;;;;4984179;28;20197;-83
2022/04/30 09:37:43;;;;;;;3.10;1.65;;;;;;;;;;4970435;28;20358;-83
2022/04/30 09:40:24;;;;;;;4.25;1.95;;;;;;;;;;4977410;28;20216;-83
2022/04/30 09:42:53;;;;;;;3.15;1.85;;;;;;;;;;4971913;28;20233;-82
2022/04/30 09:45:24;;;;;;;2.67;2.00;;;;;;;;;;4969763;28;20655;-80
2022/04/30 09:47:51;;;;;;;3.15;1.85;;;;;;;;;;4973697;28;20198;-82
2022/04/30 09:55:52;;;;;;;2.25;2.05;;;;;;;;;;4980237;28;20285;-83
2022/04/30 09:58:22;;;;;;;4.60;1.95;;;;;;;;;;4967694;28;20693;-82
2022/04/30 10:00:49;;;;;;;1.50;1.40;;;;;;;;;;4975026;28;20201;-83
2022/04/30 10:03:16;;;;;;;3.58;1.90;;;;;;;;;;4981068;28;20556;-83
2022/04/30 10:05:44;;;;;;;1.80;1.70;;;;;;;;;;4982920;28;20219;-82
2022/04/30 10:08:12;;;;;;;1.50;1.30;;;;;;;;;;4967184;28;20610;-83
2022/04/30 10:10:42;;;;;;;2.75;1.70;;;;;;;;;;4980171;28;20203;-82
2022/04/30 10:13:13;;;;;;;1.85;1.58;;;;;;;;;;4971569;28;20206;-82
2022/04/30 10:15:45;;;;;;;1.70;1.48;;;;;;;;;;4973401;28;20205;-82
2022/04/30 10:18:14;;;;;;;4.50;2.15;;;;;;;;;;4971281;28;20635;-84
2022/04/30 10:20:51;;;;;;;1.83;1.67;;;;;;;;;;4981340;28;20230;-84
2022/04/30 10:23:18;;;;;;;3.63;3.33;;;;;;;;;;4983905;28;20237;-78
2022/04/30 10:25:47;;;;;;;4.72;2.95;;;;;;;;;;4989494;28;20236;-83
2022/04/30 10:28:21;;;;;;;3.20;2.45;;;;;;;;;;4977384;28;20304;-82
2022/04/30 10:31:00;;;;;;;4.05;2.47;;;;;;;;;;4978993;28;20204;-81
2022/04/30 10:33:27;;;;;;;4.18;2.40;;;;;;;;;;4992040;28;20683;-81
2022/04/30 10:36:04;;;;;;;2.35;2.15;;;;;;;;;;4986577;28;20665;-84
2022/04/30 10:38:32;;;;;;;2.50;2.00;;;;;;;;;;4971086;28;20224;-82
2022/04/30 10:41:00;;;;;;;3.78;2.17;;;;;;;;;;4983498;28;20224;-80
2022/04/30 10:43:31;;;;;;;3.83;2.10;;;;;;;;;;4971360;28;20201;-82
2022/04/30 10:46:00;;;;;;;5.93;2.33;;;;;;;;;;4965752;28;20253;-79
2022/04/30 10:48:28;;;;;;;2.22;2.03;;;;;;;;;;4975118;28;20193;-82
2022/04/30 10:51:03;;;;;;;2.88;2.28;;;;;;;;;;4976031;28;20216;-82
2022/04/30 10:53:30;;;;;;;2.63;2.42;;;;;;;;;;4965234;28;20655;-81
2022/04/30 10:55:57;;;;;;;2.05;1.67;;;;;;;;;;4979428;28;20650;-82
2022/04/30 10:58:25;;;;;;;3.08;2.00;;;;;;;;;;4978528;28;20228;-82
2022/04/30 11:00:52;;;;;;;4.05;2.30;;;;;;;;;;4966520;28;20204;-81
2022/04/30 11:03:26;;;;;;;1.95;1.70;;;;;;;;;;4984377;28;20660;-82
2022/04/30 11:05:53;;;;;;;2.75;1.73;;;;;;;;;;4984636;28;20204;-83
2022/04/30 11:08:20;;;;;;;2.38;2.17;;;;;;;;;;4979778;28;20208;-82
2022/04/30 11:10:51;;;;;;;2.75;1.67;;;;;;;;;;4967474;28;20199;-82
2022/04/30 11:13:18;;;;;;;2.83;1.95;;;;;;;;;;4981520;28;20255;-82
2022/04/30 11:15:45;;;;;;;2.05;1.45;;;;;;;;;;4967392;28;20197;-83
2022/04/30 11:18:13;;;;;;;2.40;1.95;;;;;;;;;;4979278;28;20228;-83
2022/04/30 11:20:42;;;;;;;3.22;1.92;;;;;;;;;;4968789;28;20205;-82
2022/04/30 11:23:09;;;;;;;3.28;1.50;;;;;;;;;;4976123;28;20197;-82
2022/04/30 11:25:36;;;;;;;2.33;2.10;;;;;;;;;;4981087;28;20204;-81
2022/04/30 11:28:06;;;;;;;2.58;2.38;;;;;;;;;;4969224;28;20673;-82
2022/04/30 11:30:36;;;;;;;2.22;1.70;;;;;;;;;;4973395;28;20714;-82
2022/04/30 11:33:03;;;;;;;3.75;1.65;;;;;;;;;;4973667;28;20196;-82
2022/04/30 11:35:30;;;;;;;2.45;1.80;;;;;;;;;;4973731;28;20205;-80
2022/04/30 11:37:59;;;;;;;4.50;2.40;;;;;;;;;;4973899;28;20229;-81
2022/04/30 11:40:26;;;;;;;2.30;1.80;;;;;;;;;;4965682;28;20232;-81
2022/04/30 11:42:57;;;;;;;2.63;1.90;;;;;;;;;;4974388;28;20685;-82
2022/04/30 11:45:25;;;;;;;1.90;1.70;;;;;;;;;;4966582;28;20236;-81
2022/04/30 11:47:52;;;;;;;1.80;1.70;;;;;;;;;;4983144;28;20205;-80
2022/04/30 11:50:19;;;;;;;2.85;2.00;;;;;;;;;;4970808;28;20204;-81
2022/04/30 11:52:47;;;;;;;2.20;2.00;;;;;;;;;;4979795;28;20205;-83
2022/04/30 11:55:16;;;;;;;2.65;1.90;;;;;;;;;;4984353;28;20205;-81
2022/04/30 11:57:44;;;;;;;3.22;1.77;;;;;;;;;;4977050;28;20225;-81
2022/04/30 12:00:13;;;;;;;2.47;1.67;;;;;;;;;;4978635;28;20213;-82
2022/04/30 12:02:40;;;;;;;2.72;2.05;;;;;;;;;;4978337;28;20201;-80
2022/04/30 12:05:08;;;;;;;2.50;1.95;;;;;;;;;;4980250;28;20205;-81
2022/04/30 12:07:36;;;;;;;2.90;2.05;;;;;;;;;;4968623;28;20205;-81
2022/04/30 12:10:04;;;;;;;2.35;1.60;;;;;;;;;;4963745;28;20206;-83
2022/04/30 12:12:40;;;;;;;2.10;1.80;;;;;;;;;;4978713;28;20755;-81
2022/04/30 12:15:17;;;;;;;1.73;1.23;;;;;;;;;;4974953;28;20207;-83
2022/04/30 12:17:44;;;;;;;1.98;1.60;;;;;;;;;;4980633;28;20204;-81
2022/04/30 12:25:47;;;;;;;3.50;2.03;;;;;;;;;;4977839;28;20243;-80
2022/04/30 12:28:15;;;;;;;1.70;1.60;;;;;;;;;;4979131;28;20208;-82
2022/04/30 12:30:51;;;;;;;2.10;1.90;;;;;;;;;;4974410;28;20212;-82
2022/04/30 12:33:20;;;;;;;1.58;1.48;;;;;;;;;;4959828;28;20525;-81
2022/04/30 12:35:54;;;;;;;3.25;1.50;;;;;;;;;;4976729;28;20571;-80
2022/04/30 12:38:21;;;;;;;2.60;2.30;;;;;;;;;;4968148;28;20226;-83
2022/04/30 12:40:48;;;;;;;2.08;1.63;;;;;;;;;;4977061;28;20236;-80
2022/04/30 12:43:17;;;;;;;1.85;1.75;;;;;;;;;;4966474;28;20285;-82
2022/04/30 12:45:44;;;;;;;2.58;1.67;;;;;;;;;;4966729;28;20205;-84
2022/04/30 12:48:11;;;;;;;2.00;1.80;;;;;;;;;;4971430;28;20658;-82
2022/04/30 12:50:39;;;;;;;2.08;1.75;;;;;;;;;;4971148;28;20675;-83
2022/04/30 12:53:09;;;;;;;1.90;1.80;;;;;;;;;;4968929;28;20619;-83
2022/04/30 12:55:36;;;;;;;1.88;1.63;;;;;;;;;;4979581;28;20196;-83
2022/04/30 12:58:03;;;;;;;1.65;1.50;;;;;;;;;;4965105;28;20725;-84
2022/04/30 13:00:32;;;;;;;2.20;2.00;;;;;;;;;;4970170;28;20202;-83
2022/04/30 13:03:00;;;;;;;2.50;1.67;;;;;;;;;;4967916;28;20440;-84
2022/04/30 13:05:27;;;;;;;3.35;2.40;;;;;;;;;;4966973;28;20272;-85
2022/04/30 13:07:55;;;;;;;1.55;1.45;;;;;;;;;;4970323;28;20213;-82
2022/04/30 13:15:53;;;;;;;1.80;1.70;;;;;;;;;;4962899;28;20220;-81
2022/04/30 13:18:21;;;;;;;1.70;1.60;;;;;;;;;;4971190;28;20316;-84
2022/04/30 13:20:48;;;;;;;2.15;1.75;;;;;;;;;;4974273;28;20647;-84
2022/04/30 13:23:16;;;;;;;1.60;1.50;;;;;;;;;;4976961;28;20206;-80
2022/04/30 13:25:43;;;;;;;2.38;1.50;;;;;;;;;;4982974;28;20212;-84
2022/04/30 13:28:10;;;;;;;2.58;1.95;;;;;;;;;;4976123;28;20211;-81
2022/04/30 13:30:37;;;;;;;2.58;1.85;;;;;;;;;;4961158;28;20198;-82
2022/04/30 13:33:06;;;;;;;1.40;1.30;;;;;;;;;;4968402;28;20213;-83
2022/04/30 13:35:33;;;;;;;2.05;1.60;;;;;;;;;;4982000;28;20202;-83
2022/04/30 13:38:00;;;;;;;1.55;1.45;;;;;;;;;;4969641;28;20200;-83
2022/04/30 13:40:27;;;;;;;1.65;1.55;;;;;;;;;;4978234;28;20223;-83
2022/04/30 13:42:54;;;;;;;1.65;1.55;;;;;;;;;;4977606;28;20349;-84
2022/04/30 13:45:22;;;;;;;2.50;1.60;;;;;;;;;;4969701;28;20690;-84
2022/04/30 13:47:51;;;;;;;2.03;1.60;;;;;;;;;;4988615;28;20227;-83
2022/04/30 13:50:19;;;;;;;1.50;1.40;;;;;;;;;;4973170;28;20210;-82
2022/04/30 13:52:46;;;;;;;1.80;1.60;;;;;;;;;;4974826;28;20211;-83
2022/04/30 13:55:13;;;;;;;2.08;1.50;;;;;;;;;;4982644;28;20208;-84
2022/04/30 13:57:41;;;;;;;1.67;1.30;;;;;;;;;;4989157;28;20550;-84
2022/04/30 14:00:13;;;;;;;1.35;1.10;;;;;;;;;;4969812;28;20225;-83
2022/04/30 14:02:40;;;;;;;3.15;1.70;;;;;;;;;;4968363;28;20709;-82
2022/04/30 14:05:08;;;;;;;3.55;1.30;;;;;;;;;;4979024;28;20193;-83
2022/04/30 14:07:37;;;;;;;1.75;1.42;;;;;;;;;;4982195;28;20201;-84
2022/04/30 14:10:04;;;;;;;1.98;1.50;;;;;;;;;;4967249;28;20201;-83
2022/04/30 14:12:31;;;;;;;2.97;1.50;;;;;;;;;;4980038;28;20218;-84
2022/04/30 14:14:57;;;;;;;2.97;1.73;;;;;;;;;;4976804;28;20197;-83
2022/04/30 14:20:11;;;;;;;2.25;1.52;;;;;;;;;;4979735;28;20231;-84
2022/04/30 14:22:40;;;;;;;2.03;1.83;;;;;;;;;;4972341;28;20229;-83
2022/04/30 14:25:08;;;;;;;1.83;1.60;;;;;;;;;;4983206;28;20198;-82
2022/04/30 14:27:36;;;;;;;1.45;1.30;;;;;;;;;;4971779;28;20206;-83
2022/04/30 14:30:04;;;;;;;1.50;1.40;;;;;;;;;;4971930;28;20288;-83
2022/04/30 14:32:31;;;;;;;1.70;1.60;;;;;;;;;;4983241;28;20674;-84
2022/04/30 14:34:59;;;;;;;1.42;1.33;;;;;;;;;;4970166;28;20573;-84
2022/04/30 14:37:29;;;;;;;3.15;1.75;;;;;;;;;;4970241;28;20330;-83
2022/04/30 14:39:57;;;;;;;1.90;1.80;;;;;;;;;;4981634;28;20220;-83
2022/04/30 14:42:25;;;;;;;2.03;1.92;;;;;;;;;;4967712;28;20232;-81
2022/04/30 14:44:52;;;;;;;1.48;1.27;;;;;;;;;;4962276;28;20210;-83
2022/04/30 14:47:19;;;;;;;2.50;1.67;;;;;;;;;;4982907;28;20205;-83
2022/04/30 14:49:47;;;;;;;1.63;1.50;;;;;;;;;;4975586;28;20197;-83
2022/04/30 14:52:14;;;;;;;1.40;1.30;;;;;;;;;;4975674;28;20288;-85
2022/04/30 14:54:41;;;;;;;2.97;1.90;;;;;;;;;;4969366;28;20205;-83
2022/04/30 14:57:09;;;;;;;2.33;1.40;;;;;;;;;;4977580;28;20204;-84
2022/04/30 14:59:37;;;;;;;1.73;1.50;;;;;;;;;;4970597;28;20220;-84
2022/04/30 15:02:04;;;;;;;1.70;1.50;;;;;;;;;;4982373;28;20870;-84
2022/04/30 15:04:31;;;;;;;1.90;1.80;;;;;;;;;;4972825;28;20299;-82
2022/04/30 15:06:59;;;;;;;2.17;1.50;;;;;;;;;;4967810;28;20743;-84
2022/04/30 15:09:27;;;;;;;2.22;1.10;;;;;;;;;;4970079;28;20218;-84
2022/04/30 15:11:54;;;;;;;1.77;1.67;;;;;;;;;;4973658;28;20260;-83
2022/04/30 15:14:22;;;;;;;1.40;1.30;;;;;;;;;;4974074;28;20732;-81
2022/04/30 15:16:49;;;;;;;1.35;1.25;;;;;;;;;;4982048;28;20309;-84
2022/04/30 15:19:17;;;;;;;1.70;1.60;;;;;;;;;;4978114;28;20217;-83
2022/04/30 15:21:44;;;;;;;1.73;1.25;;;;;;;;;;4978984;28;20212;-83
2022/04/30 15:24:11;;;;;;;1.80;1.30;;;;;;;;;;4977190;28;20216;-84
2022/04/30 15:26:38;;;;;;;1.33;1.23;;;;;;;;;;4973790;28;20209;-84
2022/04/30 15:29:06;;;;;;;1.55;1.42;;;;;;;;;;4959490;28;20201;-84
2022/04/30 15:31:35;;;;;;;2.28;1.92;;;;;;;;;;4960806;28;20235;-83
2022/04/30 15:34:02;;;;;;;2.20;1.80;;;;;;;;;;4969333;28;20244;-84
2022/04/30 15:36:30;;;;;;;1.20;1.10;;;;;;;;;;4978252;28;20564;-84